KSKA/SKA METAR and TAF weather

Enter ICAO airport designator
Station Type Date Time Source
KSKA METAR 2019/04/26 02:58 UTC NOAA

KSKA 260258Z AUTO 01005KT 10SM OVC140 13/00 A2999 RMK AO2 SLP161 T01320002 57017 $


Station Type Date Time Source
KSKA Decoded METAR 2019/04/26 02:58 UTC NOAA

Fairchild Air Force Base, WA, United States (KSKA) 47-37N 117-39W
Apr 25, 2019 - 10:58 PM EDT / 2019.04.26 0258 UTC
Wind: from the N (010 degrees) at 6 MPH (5 KT):0
Visibility: 10 mile(s):0
Sky conditions: overcast
Temperature: 55.8 F (13.2 C)
Dew Point: 32.4 F (0.2 C)
Relative Humidity: 40%
Pressure (altimeter): 29.99 in. Hg (1015 hPa)
Pressure tendency: 0.05 inches (1.7 hPa) lower than three hours ago
ob: KSKA 260258Z AUTO 01005KT 10SM OVC140 13/00 A2999 RMK AO2 SLP161 T01320002 57017
cycle: 3

Station Type Date Time Source
KSKA TAF 2019/04/26 03:06 UTC NOAA

TAF KSKA 260300Z 2603/2709 VRB06KT 9999 BKN120 QNH2994INS
BECMG 2614/2615 27012G18KT 9000 -SHRA BKN020 OVC030 610409 QNH2993INS
BECMG 2623/2624 26015G25KT 9999 NSW FEW150 QNH2995INS WND 25012G18KT AFT 2703 TX16/2621Z TN09/2614Z

Example: see airport list